Time;durP1;ratioP1;P1;durP2;ratioP2;P2;SDS_P1;SDS_P2;PMS_P1;PMS_P2;Temp;Humidity;BMP_temperature;BMP_pressure;BME280_temperature;BME280_humidity;BME280_pressure;Samples;Min_cycle;Max_cycle;Signal;HPM_P1;HPM_P2
2022/05/07 00:00:25;;;;;;;;;;;;;;;11.69;100.00;100685.59;5052313;28;19924;-62
2022/05/07 00:02:50;;;;;;;;;;;;;;;11.61;100.00;100684.00;5053006;28;20464;-62
2022/05/07 00:05:15;;;;;;;;;;;;;;;11.47;100.00;100687.03;5052597;28;19921;-62
2022/05/07 00:07:41;;;;;;;;;;;;;;;11.48;100.00;100686.09;5051737;28;19917;-63
2022/05/07 00:10:06;;;;;;;;;;;;;;;11.55;100.00;100684.16;5052614;28;19913;-62
2022/05/07 00:12:35;;;;;;;;;;;;;;;11.48;100.00;100677.25;5052528;28;19920;-63
2022/05/07 00:15:00;;;;;;;;;;;;;;;11.42;100.00;100685.38;5051994;28;19923;-62
2022/05/07 00:20:10;;;;;;;;;;;;;;;11.32;100.00;100683.84;5071468;28;19919;-62
2022/05/07 00:22:35;;;;;;;;;;;;;;;11.27;100.00;100673.31;5071346;28;19920;-62
2022/05/07 00:25:00;;;;;;;;;;;;;;;11.29;100.00;100671.50;5072324;28;20018;-62
2022/05/07 00:27:26;;;;;;;;;;;;;;;11.22;100.00;100669.06;5072115;28;20043;-62
2022/05/07 00:29:51;;;;;;;;;;;;;;;11.17;100.00;100662.97;5052004;28;19927;-62
2022/05/07 00:32:17;;;;;;;;;;;;;;;11.18;100.00;100672.69;5051770;28;20007;-62
2022/05/07 00:34:42;;;;;;;;;;;;;;;11.10;100.00;100666.69;5052886;28;19913;-62
2022/05/07 00:37:07;;;;;;;;;;;;;;;11.09;100.00;100672.88;5052024;28;19913;-62
2022/05/07 00:39:32;;;;;;;;;;;;;;;11.07;100.00;100669.41;5052121;28;20287;-62
2022/05/07 00:42:02;;;;;;;;;;;;;;;11.08;100.00;100665.84;5051422;28;19912;-62
2022/05/07 00:44:27;;;;;;;;;;;;;;;10.99;100.00;100666.06;5051707;28;20346;-62
2022/05/07 00:46:52;;;;;;;;;;;;;;;10.89;100.00;100660.06;5050239;28;19982;-62
2022/05/07 00:49:18;;;;;;;;;;;;;;;10.89;100.00;100667.19;5052446;28;20368;-62
2022/05/07 00:51:43;;;;;;;;;;;;;;;10.92;100.00;100659.13;5052360;28;19919;-62
2022/05/07 00:54:12;;;;;;;;;;;;;;;10.91;100.00;100658.25;5052313;28;19912;-62
2022/05/07 00:56:37;;;;;;;;;;;;;;;10.89;100.00;100653.88;5051954;28;20016;-62
2022/05/07 00:59:03;;;;;;;;;;;;;;;10.93;100.00;100658.22;5051324;28;19916;-63
2022/05/07 01:01:29;;;;;;;;;;;;;;;10.93;100.00;100656.44;5049668;28;20006;-62
2022/05/07 01:03:54;;;;;;;;;;;;;;;10.92;100.00;100661.78;5050444;28;20387;-62
2022/05/07 01:06:20;;;;;;;;;;;;;;;10.91;100.00;100662.69;5050008;28;19952;-62
2022/05/07 01:08:47;;;;;;;;;;;;;;;10.86;100.00;100657.47;5049986;28;20369;-62
2022/05/07 01:11:12;;;;;;;;;;;;;;;10.78;100.00;100666.53;5049847;28;19913;-62
2022/05/07 01:13:38;;;;;;;;;;;;;;;10.73;100.00;100664.00;5049215;28;19917;-62
2022/05/07 01:16:03;;;;;;;;;;;;;;;10.73;100.00;100660.44;5050246;28;19917;-62
2022/05/07 01:18:29;;;;;;;;;;;;;;;10.77;100.00;100659.50;5069700;28;19924;-62
2022/05/07 01:20:57;;;;;;;;;;;;;;;10.73;100.00;100663.13;5069576;28;19919;-62
2022/05/07 01:23:23;;;;;;;;;;;;;;;10.73;100.00;100665.78;5070148;28;19995;-62
2022/05/07 01:25:49;;;;;;;;;;;;;;;10.80;100.00;100667.41;5067114;28;19958;-62
2022/05/07 01:28:16;;;;;;;;;;;;;;;10.71;100.00;100664.97;5050449;28;20221;-62
2022/05/07 01:30:41;;;;;;;;;;;;;;;10.70;100.00;100668.50;5051164;28;20437;-62
2022/05/07 01:33:06;;;;;;;;;;;;;;;10.62;100.00;100676.69;5051448;28;19928;-62
2022/05/07 01:35:32;;;;;;;;;;;;;;;10.55;100.00;100673.28;5050385;28;19923;-62
2022/05/07 01:37:57;;;;;;;;;;;;;;;10.45;100.00;100666.41;5050982;28;19975;-62
2022/05/07 01:40:22;;;;;;;;;;;;;;;10.33;100.00;100666.66;5051436;28;19971;-62
2022/05/07 01:42:48;;;;;;;;;;;;;;;10.31;100.00;100665.81;5051090;28;20332;-62
2022/05/07 01:45:13;;;;;;;;;;;;;;;10.35;100.00;100659.53;5051191;28;19924;-62
2022/05/07 01:50:22;;;;;;;;;;;;;;;10.34;100.00;100665.78;5051277;28;20385;-62
2022/05/07 01:52:51;;;;;;;;;;;;;;;10.35;100.00;100664.84;5050862;28;20003;-62
2022/05/07 01:55:16;;;;;;;;;;;;;;;10.31;100.00;100670.28;5051087;28;19920;-62
2022/05/07 01:57:41;;;;;;;;;;;;;;;10.31;100.00;100665.81;5050884;28;19913;-62
2022/05/07 02:00:08;;;;;;;;;;;;;;;10.28;100.00;100668.53;5050444;28;20011;-62
2022/05/07 02:02:34;;;;;;;;;;;;;;;10.26;100.00;100667.69;5050557;28;20359;-62
2022/05/07 02:04:59;;;;;;;;;;;;;;;10.24;100.00;100666.88;5051020;28;19960;-63
2022/05/07 02:07:24;;;;;;;;;;;;;;;10.16;100.00;100666.16;5050445;28;20007;-63
2022/05/07 02:09:50;;;;;;;;;;;;;;;10.20;100.00;100658.97;5050790;28;19970;-62
2022/05/07 02:12:15;;;;;;;;;;;;;;;10.19;100.00;100666.09;5050975;28;19913;-62
2022/05/07 02:14:41;;;;;;;;;;;;;;;10.23;100.00;100667.75;5050891;28;19913;-63
2022/05/07 02:17:06;;;;;;;;;;;;;;;10.27;100.00;100663.25;5058796;28;19920;-62
2022/05/07 02:19:31;;;;;;;;;;;;;;;10.27;100.00;100669.47;5071012;28;20649;-62
2022/05/07 02:21:56;;;;;;;;;;;;;;;10.19;100.00;100666.09;5070889;28;20247;-62
2022/05/07 02:24:22;;;;;;;;;;;;;;;10.23;100.00;100662.44;5070682;28;19928;-62
2022/05/07 02:26:47;;;;;;;;;;;;;;;10.27;100.00;100668.56;5070826;28;19962;-62
2022/05/07 02:29:14;;;;;;;;;;;;;;;10.15;100.00;100664.38;5055111;28;19929;-62
2022/05/07 02:31:40;;;;;;;;;;;;;;;10.10;100.00;100660.94;5050595;28;20058;-62
2022/05/07 02:34:05;;;;;;;;;;;;;;;10.02;100.00;100665.50;5050491;28;19967;-62
2022/05/07 02:36:32;;;;;;;;;;;;;;;9.95;100.00;100671.84;5048814;28;19920;-62
2022/05/07 02:38:58;;;;;;;;;;;;;;;9.98;100.00;100666.47;5048961;28;19908;-62
2022/05/07 02:44:07;;;;;;;;;;;;;;;9.94;100.00;100664.78;5027754;28;19928;-62
2022/05/07 02:46:32;;;;;;;;;;;;;;;9.94;100.00;100675.44;5028353;28;19917;-62
2022/05/07 02:48:57;;;;;;;;;;;;;;;9.93;100.00;100668.38;5028866;28;19920;-62
2022/05/07 02:51:23;;;;;;;;;;;;;;;9.92;100.00;100666.59;5028742;28;19917;-62
2022/05/07 02:53:48;;;;;;;;;;;;;;;9.92;100.00;100666.59;5030162;28;19917;-62
2022/05/07 02:56:14;;;;;;;;;;;;;;;9.86;100.00;100674.69;5030673;28;19917;-62
2022/05/07 02:58:39;;;;;;;;;;;;;;;9.87;100.00;100673.78;5041027;28;19916;-62
2022/05/07 03:01:04;;;;;;;;;;;;;;;9.83;100.00;100680.06;5050349;28;20470;-62
2022/05/07 03:03:29;;;;;;;;;;;;;;;9.73;100.00;100678.50;5050231;28;19916;-62
2022/05/07 03:05:56;;;;;;;;;;;;;;;9.67;100.00;100681.25;5048215;28;19975;-63
2022/05/07 03:08:23;;;;;;;;;;;;;;;9.68;100.00;100679.47;5048066;28;19923;-63
2022/05/07 03:10:48;;;;;;;;;;;;;;;9.63;100.00;100679.56;5049975;28;19913;-63
2022/05/07 03:13:13;;;;;;;;;;;;;;;9.65;100.00;100677.75;5052140;28;19932;-63
2022/05/07 03:15:39;;;;;;;;;;;;;;;9.65;100.00;100672.44;5052411;28;19959;-63
2022/05/07 03:18:04;;;;;;;;;;;;;;;9.69;100.00;100675.91;5068067;28;19916;-62
2022/05/07 03:20:29;;;;;;;;;;;;;;;9.76;100.00;100666.91;5073439;28;19963;-63
2022/05/07 03:22:55;;;;;;;;;;;;;;;9.77;100.00;100672.19;5073758;28;20327;-62
2022/05/07 03:25:20;;;;;;;;;;;;;;;9.80;100.00;100672.13;5065240;28;20019;-62
2022/05/07 03:27:45;;;;;;;;;;;;;;;9.83;100.00;100671.22;5053788;28;19921;-62
2022/05/07 03:30:11;;;;;;;;;;;;;;;9.79;100.00;100682.78;5053272;28;20323;-62
2022/05/07 03:32:36;;;;;;;;;;;;;;;9.71;100.00;100680.28;5053802;28;19927;-62
2022/05/07 03:35:01;;;;;;;;;;;;;;;9.62;100.00;100677.78;5053359;28;20020;-62
2022/05/07 03:37:27;;;;;;;;;;;;;;;9.61;100.00;100675.16;5053521;28;19958;-62
2022/05/07 03:39:52;;;;;;;;;;;;;;;9.64;100.00;100673.34;5053426;28;19913;-62
2022/05/07 03:42:20;;;;;;;;;;;;;;;9.69;100.00;100676.78;5053538;28;20007;-62
2022/05/07 03:44:48;;;;;;;;;;;;;;;9.72;100.00;100659.94;5053367;28;20000;-62
2022/05/07 03:47:13;;;;;;;;;;;;;;;9.70;100.00;100670.59;5053390;28;20280;-62
2022/05/07 03:49:38;;;;;;;;;;;;;;;9.61;100.00;100670.75;5053496;28;19943;-62
2022/05/07 03:54:47;;;;;;;;;;;;;;;9.66;100.00;100674.19;5053217;28;20089;-62
2022/05/07 03:57:13;;;;;;;;;;;;;;;9.75;100.00;100675.81;5053079;28;19951;-62
2022/05/07 03:59:42;;;;;;;;;;;;;;;9.73;100.00;100681.16;5053359;28;19924;-62
2022/05/07 04:02:07;;;;;;;;;;;;;;;9.61;100.00;100685.78;5052909;28;19935;-62
2022/05/07 04:04:33;;;;;;;;;;;;;;;9.63;100.00;100684.88;5053041;28;19921;-62
2022/05/07 04:06:58;;;;;;;;;;;;;;;9.71;100.00;100688.25;5053116;28;19917;-62
2022/05/07 04:09:24;;;;;;;;;;;;;;;9.77;100.00;100684.63;5051510;28;20307;-62
2022/05/07 04:11:49;;;;;;;;;;;;;;;9.75;100.00;100689.09;5051059;28;19913;-62
2022/05/07 04:14:14;;;;;;;;;;;;;;;9.71;100.00;100682.94;5051727;28;19919;-62
2022/05/07 04:16:40;;;;;;;;;;;;;;;9.74;100.00;100693.50;5057059;28;19912;-62
2022/05/07 04:19:05;;;;;;;;;;;;;;;9.70;100.00;100688.28;5070250;28;19974;-62
2022/05/07 04:21:32;;;;;;;;;;;;;;;9.70;100.00;100697.16;5052305;28;20388;-62
2022/05/07 04:23:58;;;;;;;;;;;;;;;9.74;100.00;100689.97;5052329;28;19912;-62
2022/05/07 04:26:23;;;;;;;;;;;;;;;9.74;100.00;100682.88;5052654;28;19924;-62
2022/05/07 04:28:48;;;;;;;;;;;;;;;9.77;100.00;100684.63;5051833;28;19913;-63
2022/05/07 04:31:16;;;;;;;;;;;;;;;9.77;100.00;100688.13;5051893;28;19917;-62
2022/05/07 04:33:41;;;;;;;;;;;;;;;9.76;100.00;100678.44;5052509;28;19964;-62
2022/05/07 04:36:06;;;;;;;;;;;;;;;9.76;100.00;100689.06;5052357;28;19948;-62
2022/05/07 04:38:32;;;;;;;;;;;;;;;9.75;100.00;100675.81;5052082;28;19917;-62
2022/05/07 04:40:57;;;;;;;;;;;;;;;9.79;100.00;100681.03;5052083;28;19913;-62
2022/05/07 04:43:22;;;;;;;;;;;;;;;9.91;100.00;100678.16;5052571;28;20391;-62
2022/05/07 04:45:47;;;;;;;;;;;;;;;10.04;100.00;100682.31;5050596;28;19917;-62
2022/05/07 04:48:13;;;;;;;;;;;;;;;10.14;100.00;100686.56;5052104;28;19913;-62
2022/05/07 04:50:38;;;;;;;;;;;;;;;10.18;100.00;100687.41;5052111;28;19917;-62
2022/05/07 04:53:05;;;;;;;;;;;;;;;10.27;100.00;100684.53;5052319;28;20312;-62
2022/05/07 04:55:31;;;;;;;;;;;;;;;10.33;100.00;100687.94;5052007;28;19954;-62
2022/05/07 04:57:57;;;;;;;;;;;;;;;10.44;100.00;100688.56;5052345;28;20287;-62
2022/05/07 05:00:22;;;;;;;;;;;;;;;10.52;100.00;100688.44;5052089;28;19919;-62
2022/05/07 05:02:47;;;;;;;;;;;;;;;10.53;100.00;100691.06;5051943;28;19913;-62
2022/05/07 05:05:13;;;;;;;;;;;;;;;10.57;100.00;100684.78;5051986;28;20020;-62
2022/05/07 05:07:39;;;;;;;;;;;;;;;10.63;100.00;100684.63;5051994;28;19917;-62
2022/05/07 05:10:04;;;;;;;;;;;;;;;10.76;100.00;100685.22;5051271;28;19913;-63
2022/05/07 05:12:29;;;;;;;;;;;;;;;10.84;100.00;100687.72;5051879;28;19917;-63
2022/05/07 05:15:04;;;;;;;;;;;;;;;10.93;100.00;100690.16;5051603;28;20318;-63
2022/05/07 05:17:30;;;;;;;;;;;;;;;11.08;100.00;100692.44;5062977;28;19971;-63
2022/05/07 05:19:56;;;;;;;;;;;;;;;11.22;100.00;100691.19;5069533;28;19913;-63
2022/05/07 05:22:21;;;;;;;;;;;;;;;11.32;100.00;100695.38;5051580;28;20330;-63
2022/05/07 05:24:46;;;;;;;;;;;;;;;11.45;100.00;100694.16;5051565;28;19923;-62
2022/05/07 05:27:12;;;;;;;;;;;;;;;11.60;100.00;100692.91;5051849;28;19913;-62
2022/05/07 05:29:37;;;;;;;;;;;;;;;11.86;100.00;100695.81;5051393;28;19924;-62
2022/05/07 05:32:02;;;;;;;;;;;;;;;12.73;100.00;100697.72;5051081;28;19916;-62
2022/05/07 05:34:28;;;;;;;;;;;;;;;13.95;100.00;100701.69;5050463;28;19924;-62
2022/05/07 05:36:53;;;;;;;;;;;;;;;14.49;95.68;100694.34;5051564;28;20402;-62
2022/05/07 05:39:18;;;;;;;;;;;;;;;14.34;91.15;100700.25;5051453;28;20383;-62
2022/05/07 05:41:44;;;;;;;;;;;;;;;14.03;89.29;100696.94;5051321;28;20236;-62
2022/05/07 05:44:09;;;;;;;;;;;;;;;13.75;90.23;100704.16;5051461;28;19912;-62
2022/05/07 05:46:35;;;;;;;;;;;;;;;13.63;92.27;100699.22;5050898;28;19917;-62
2022/05/07 05:49:00;;;;;;;;;;;;;;;13.55;94.41;100695.94;5051213;28;19991;-62
2022/05/07 05:51:25;;;;;;;;;;;;;;;13.66;93.89;100700.00;5051271;28;19923;-62
2022/05/07 05:53:51;;;;;;;;;;;;;;;13.76;94.91;100697.88;5051304;28;19912;-62
2022/05/07 05:56:16;;;;;;;;;;;;;;;13.86;94.21;100702.88;5050998;28;20358;-62
2022/05/07 05:58:41;;;;;;;;;;;;;;;13.92;92.53;100699.13;5051263;28;19913;-63
2022/05/07 06:01:07;;;;;;;;;;;;;;;13.95;93.88;100702.53;5051086;28;19913;-63
2022/05/07 06:03:33;;;;;;;;;;;;;;;14.03;93.45;100699.59;5051312;28;19916;-63
2022/05/07 06:05:59;;;;;;;;;;;;;;;14.12;93.21;100704.59;5050876;28;19921;-63
2022/05/07 06:08:24;;;;;;;;;;;;;;;14.25;93.60;100708.63;5051288;28;19923;-63
2022/05/07 06:10:54;;;;;;;;;;;;;;;14.38;93.70;100707.25;5050522;28;19923;-63
2022/05/07 06:13:20;;;;;;;;;;;;;;;14.46;93.62;100694.47;5050477;28;20330;-63
2022/05/07 06:15:49;;;;;;;;;;;;;;;14.61;92.97;100699.25;5050633;28;20015;-63
2022/05/07 06:18:14;;;;;;;;;;;;;;;14.78;92.37;100696.75;5068382;28;19957;-63
2022/05/07 06:20:39;;;;;;;;;;;;;;;14.91;92.55;100708.75;5071013;28;19912;-63
2022/05/07 06:23:04;;;;;;;;;;;;;;;15.07;91.39;100706.34;5070973;28;20012;-63
2022/05/07 06:28:13;;;;;;;;;;;;;;;15.41;89.55;100696.91;5050906;28;19919;-63
2022/05/07 06:30:39;;;;;;;;;;;;;;;15.54;89.95;100702.63;5050573;28;19920;-63
2022/05/07 06:33:04;;;;;;;;;;;;;;;15.65;89.86;100709.28;5051061;28;19913;-63
2022/05/07 06:35:29;;;;;;;;;;;;;;;15.71;90.53;100708.16;5050611;28;20011;-63
2022/05/07 06:37:55;;;;;;;;;;;;;;;15.81;89.42;100706.84;5050086;28;19916;-63
2022/05/07 06:40:20;;;;;;;;;;;;;;;16.00;88.10;100704.19;5049448;28;20380;-63
2022/05/07 06:42:45;;;;;;;;;;;;;;;16.16;86.42;100697.25;5050673;28;20287;-63
2022/05/07 06:45:11;;;;;;;;;;;;;;;16.35;85.51;100701.72;5051351;28;19931;-63
2022/05/07 06:47:36;;;;;;;;;;;;;;;16.48;83.87;100699.38;5054614;28;19917;-63
2022/05/07 06:50:02;;;;;;;;;;;;;;;16.66;82.78;100701.19;5054542;28;20557;-63
2022/05/07 06:52:28;;;;;;;;;;;;;;;16.87;81.98;100701.06;5054744;28;19924;-63
2022/05/07 06:54:53;;;;;;;;;;;;;;;17.13;80.37;100705.22;5054653;28;19916;-63
2022/05/07 06:57:19;;;;;;;;;;;;;;;17.30;78.21;100709.78;5054284;28;19920;-63
2022/05/07 06:59:44;;;;;;;;;;;;;;;17.51;75.89;100712.28;5054440;28;19923;-63
2022/05/07 07:02:09;;;;;;;;;;;;;;;17.70;76.18;100720.31;5054541;28;19952;-63
2022/05/07 07:04:34;;;;;;;;;;;;;;;17.92;71.91;100707.50;5054482;28;19921;-63
2022/05/07 07:07:00;;;;;;;;;;;;;;;18.11;67.02;100706.47;5054226;28;19912;-63
2022/05/07 07:09:25;;;;;;;;;;;;;;;18.38;69.32;100707.69;5054162;28;20007;-63
2022/05/07 07:11:50;;;;;;;;;;;;;;;18.63;68.17;100706.41;5053997;28;19968;-63
2022/05/07 07:14:16;;;;;;;;;;;;;;;18.88;68.23;100706.81;5054140;28;19920;-63
2022/05/07 07:16:41;;;;;;;;;;;;;;;19.09;68.99;100717.25;5058550;28;19916;-63
2022/05/07 07:19:06;;;;;;;;;;;;;;;19.11;65.22;100714.50;5074103;28;19912;-63
2022/05/07 07:21:32;;;;;;;;;;;;;;;19.17;65.76;100712.31;5072464;28;19955;-63
2022/05/07 07:23:59;;;;;;;;;;;;;;;19.47;62.74;100713.28;5073924;28;19940;-63
2022/05/07 07:26:24;;;;;;;;;;;;;;;19.88;61.40;100712.69;5053448;28;20372;-63
2022/05/07 07:28:49;;;;;;;;;;;;;;;20.27;58.34;100710.31;5053694;28;19923;-63
2022/05/07 07:31:16;;;;;;;;;;;;;;;20.72;57.48;100705.59;5047967;28;19928;-63
2022/05/07 07:33:41;;;;;;;;;;;;;;;20.99;57.22;100702.16;5056574;28;20403;-63
2022/05/07 07:36:07;;;;;;;;;;;;;;;21.54;57.17;100701.13;5053148;28;20003;-63
2022/05/07 07:38:34;;;;;;;;;;;;;;;21.93;54.04;100703.00;5052845;28;19917;-63
2022/05/07 07:41:00;;;;;;;;;;;;;;;22.26;55.83;100700.69;5052217;28;19999;-63
2022/05/07 07:43:25;;;;;;;;;;;;;;;22.56;52.79;100698.56;5072226;28;20011;-63
2022/05/07 07:48:34;;;;;;;;;;;;;;;22.79;51.37;100703.22;5054854;28;20371;-63
2022/05/07 07:51:00;;;;;;;;;;;;;;;23.01;51.27;100700.72;5053111;28;19917;-63
2022/05/07 07:53:25;;;;;;;;;;;;;;;23.13;51.62;100702.50;5052031;28;19917;-63
2022/05/07 07:55:51;;;;;;;;;;;;;;;23.42;49.77;100694.97;5053055;28;20355;-63
2022/05/07 07:58:17;;;;;;;;;;;;;;;23.53;48.79;100699.56;5067101;28;19932;-63
2022/05/07 08:00:44;;;;;;;;;;;;;;;23.49;50.30;100706.22;5069590;28;19912;-63
2022/05/07 08:03:12;;;;;;;;;;;;;;;23.77;49.65;100692.31;5053506;28;19917;-62
2022/05/07 08:05:38;;;;;;;;;;;;;;;23.77;48.49;100689.59;5053107;28;20003;-62
2022/05/07 08:13:33;;;;;;;;;;;;;;;24.55;46.75;100689.72;5051963;28;19928;-62
2022/05/07 08:15:59;;;;;;;;;;;;;;;24.74;46.83;100682.81;5052798;28;19916;-63
2022/05/07 08:18:25;;;;;;;;;;;;;;;25.14;45.88;100687.63;5071833;28;19956;-63
2022/05/07 08:20:50;;;;;;;;;;;;;;;25.23;45.59;100692.34;5072581;28;19967;-63
2022/05/07 08:23:15;;;;;;;;;;;;;;;24.98;44.68;100689.88;5071885;28;20428;-63
2022/05/07 08:25:41;;;;;;;;;;;;;;;25.44;44.97;100698.75;5071325;28;19920;-63
2022/05/07 08:28:06;;;;;;;;;;;;;;;25.86;43.16;100691.56;5059374;28;19920;-63
2022/05/07 08:30:31;;;;;;;;;;;;;;;26.16;43.69;100691.66;5050960;28;20012;-63
2022/05/07 08:32:57;;;;;;;;;;;;;;;26.26;42.63;100683.59;5052885;28;19917;-63
2022/05/07 08:35:22;;;;;;;;;;;;;;;26.55;42.16;100690.06;5050617;28;20396;-63
2022/05/07 08:37:48;;;;;;;;;;;;;;;26.70;40.93;100688.75;5050417;28;19912;-63
2022/05/07 08:40:16;;;;;;;;;;;;;;;26.54;42.75;100682.91;5053444;28;19960;-63
2022/05/07 08:42:41;;;;;;;;;;;;;;;26.53;40.70;100686.63;5053479;28;20105;-63
2022/05/07 08:45:07;;;;;;;;;;;;;;;26.89;40.10;100688.84;5050767;28;20015;-63
2022/05/07 08:47:32;;;;;;;;;;;;;;;26.71;40.49;100682.28;5050956;28;19921;-63
2022/05/07 08:49:58;;;;;;;;;;;;;;;26.65;43.06;100691.00;5050998;28;20493;-63
2022/05/07 08:52:23;;;;;;;;;;;;;;;26.32;42.69;100688.50;5050706;28;19943;-62
2022/05/07 08:54:49;;;;;;;;;;;;;;;26.76;43.66;100683.63;5051590;28;19913;-63
2022/05/07 08:57:14;;;;;;;;;;;;;;;26.96;43.45;100681.84;5058566;28;19924;-62
2022/05/07 08:59:40;;;;;;;;;;;;;;;27.13;43.02;100675.72;5052063;28;19924;-63
2022/05/07 09:02:05;;;;;;;;;;;;;;;27.62;41.62;100683.03;5052266;28;19917;-63
2022/05/07 09:04:31;;;;;;;;;;;;;;;27.91;40.78;100676.63;5051372;28;19917;-63
2022/05/07 09:07:03;;;;;;;;;;;;;;;27.75;39.35;100678.16;5069980;28;20335;-63
2022/05/07 09:09:31;;;;;;;;;;;;;;;27.71;40.13;100674.00;5071696;28;19913;-63
2022/05/07 09:11:57;;;;;;;;;;;;;;;27.55;41.39;100673.69;5071422;28;19920;-63
2022/05/07 09:14:28;;;;;;;;;;;;;;;27.36;40.78;100671.81;5060392;28;19917;-62
2022/05/07 09:16:53;;;;;;;;;;;;;;;27.39;40.97;100674.25;5058123;28;20314;-63
2022/05/07 09:19:23;;;;;;;;;;;;;;;27.77;39.83;100663.38;5071652;28;19916;-63
2022/05/07 09:21:49;;;;;;;;;;;;;;;27.98;40.35;100666.84;5057562;28;19917;-63
2022/05/07 09:24:15;;;;;;;;;;;;;;;28.06;38.48;100666.09;5070498;28;20011;-63
2022/05/07 09:26:43;;;;;;;;;;;;;;;27.74;37.97;100660.03;5072038;28;20269;-63
2022/05/07 09:29:12;;;;;;;;;;;;;;;28.11;40.03;100653.72;5056462;28;20036;-63
2022/05/07 09:31:41;;;;;;;;;;;;;;;28.28;37.31;100654.84;5063423;28;20342;-63
2022/05/07 09:36:57;;;;;;;;;;;;;;;28.48;38.84;100660.13;5071307;28;19986;-63
2022/05/07 09:39:30;;;;;;;;;;;;;;;28.37;35.76;100649.34;5070496;28;19959;-63
2022/05/07 09:41:55;;;;;;;;;;;;;;;28.71;37.12;100646.09;5070177;28;19913;-63
2022/05/07 09:44:24;;;;;;;;;;;;;;;29.11;39.05;100646.69;5055208;28;20004;-63
2022/05/07 09:46:49;;;;;;;;;;;;;;;29.25;36.89;100648.91;5071367;28;19920;-63
2022/05/07 09:49:15;;;;;;;;;;;;;;;29.13;34.70;100650.09;5071190;28;20383;-63
2022/05/07 09:51:41;;;;;;;;;;;;;;;29.11;35.21;100643.94;5070915;28;20290;-63
2022/05/07 09:59:36;;;;;;;;;;;;;;;28.45;35.73;100641.25;5063475;28;19927;-63
2022/05/07 10:02:25;;;;;;;;;;;;;;;28.44;37.39;100645.03;5067371;28;19916;-63
2022/05/07 10:05:05;;;;;;;;;;;;;;;28.59;33.41;100641.81;5064556;28;19921;-62
2022/05/07 10:07:48;;;;;;;;;;;;;;;28.59;33.17;100636.34;5048701;28;20395;-62
2022/05/07 10:10:25;;;;;;;;;;;;;;;29.08;34.63;100633.25;5047924;28;19913;-63
2022/05/07 10:12:52;;;;;;;;;;;;;;;29.39;34.45;100626.47;5062248;28;19920;-62
2022/05/07 10:15:20;;;;;;;;;;;;;;;29.64;32.81;100626.53;5067960;28;19921;-62
2022/05/07 10:17:45;;;;;;;;;;;;;;;29.33;32.79;100621.56;5067846;28;19939;-63
2022/05/07 10:20:13;;;;;;;;;;;;;;;29.49;33.47;100622.59;5068267;28;19916;-63
2022/05/07 10:22:39;;;;;;;;;;;;;;;29.38;35.44;100621.97;5058470;28;19916;-63
2022/05/07 10:25:05;;;;;;;;;;;;;;;28.91;32.73;100617.63;5054464;28;20392;-63
2022/05/07 10:27:31;;;;;;;;;;;;;;;28.68;35.90;100614.44;5056799;28;19927;-63
2022/05/07 10:30:09;;;;;;;;;;;;;;;28.87;32.64;100624.41;5053708;28;19932;-63
2022/05/07 10:32:44;;;;;;;;;;;;;;;29.13;33.48;100615.38;5054927;28;20007;-63
2022/05/07 10:35:10;;;;;;;;;;;;;;;29.55;30.71;100621.13;5054010;28;19919;-63
2022/05/07 10:37:40;;;;;;;;;;;;;;;29.75;32.60;100622.75;5061525;28;19921;-63
2022/05/07 10:40:10;;;;;;;;;;;;;;;29.73;30.20;100618.41;5046076;28;19917;-63
2022/05/07 10:42:39;;;;;;;;;;;;;;;29.55;29.18;100616.53;5059365;28;19952;-63
2022/05/07 10:45:38;;;;;;;;;;;;;;;30.02;32.53;100608.91;5074436;28;19920;-62
2022/05/07 10:48:15;;;;;;;;;;;;;;;30.21;30.23;100608.72;5049762;28;19919;-62
2022/05/07 10:50:49;;;;;;;;;;;;;;;30.30;31.29;100612.38;5051735;28;19917;-62
2022/05/07 10:53:14;;;;;;;;;;;;;;;30.56;32.25;100608.63;5052682;28;20340;-62
2022/05/07 10:55:39;;;;;;;;;;;;;;;31.02;30.76;100606.47;5055610;28;19952;-63
2022/05/07 10:58:05;;;;;;;;;;;;;;;30.80;29.90;100600.56;5055053;28;19921;-63
2022/05/07 11:00:30;;;;;;;;;;;;;;;30.60;28.87;100599.03;5052388;28;19990;-63
2022/05/07 11:02:56;;;;;;;;;;;;;;;30.67;29.89;100600.13;5052803;28;19978;-63
2022/05/07 11:05:28;;;;;;;;;;;;;;;30.88;29.00;100599.72;5052946;28;19927;-62
2022/05/07 11:07:58;;;;;;;;;;;;;;;30.87;29.46;100601.59;5052302;28;19920;-62
2022/05/07 11:10:24;;;;;;;;;;;;;;;30.86;29.62;100597.13;5052179;28;19938;-63
2022/05/07 11:12:49;;;;;;;;;;;;;;;31.14;31.09;100596.91;5066387;28;19956;-63
2022/05/07 11:15:22;;;;;;;;;;;;;;;30.78;29.95;100585.25;5071419;28;20371;-63
2022/05/07 11:17:47;;;;;;;;;;;;;;;30.96;31.28;100587.88;5066070;28;20708;-63
2022/05/07 11:20:13;;;;;;;;;;;;;;;31.17;29.60;100585.56;5053141;28;19999;-63
2022/05/07 11:22:39;;;;;;;;;;;;;;;31.44;31.27;100577.06;5062155;28;19959;-62
2022/05/07 11:25:05;;;;;;;;;;;;;;;31.77;31.71;100589.81;5051946;28;20345;-62
2022/05/07 11:27:32;;;;;;;;;;;;;;;31.69;30.65;100576.06;5061530;28;20007;-63
2022/05/07 11:30:00;;;;;;;;;;;;;;;32.15;30.83;100572.63;5050831;28;20016;-63
2022/05/07 11:32:39;;;;;;;;;;;;;;;32.13;28.22;100578.31;5052419;28;19924;-63
2022/05/07 11:35:05;;;;;;;;;;;;;;;32.14;29.10;100576.41;5071420;28;19973;-62
2022/05/07 11:37:37;;;;;;;;;;;;;;;32.56;30.27;100581.66;5071334;28;19913;-62
2022/05/07 11:40:02;;;;;;;;;;;;;;;32.34;28.63;100572.22;5071892;28;20560;-62
2022/05/07 11:42:31;;;;;;;;;;;;;;;32.16;29.21;100574.31;5069112;28;20003;-62
2022/05/07 11:47:53;;;;;;;;;;;;;;;32.04;29.58;100570.25;5051967;28;20283;-61
2022/05/07 11:50:23;;;;;;;;;;;;;;;31.30;28.78;100569.44;5049452;28;19916;-60
2022/05/07 11:52:49;;;;;;;;;;;;;;;31.77;30.23;100574.16;5049977;28;19916;-61
2022/05/07 11:55:14;;;;;;;;;;;;;;;31.54;27.64;100570.38;5049802;28;19931;-61
2022/05/07 11:57:44;;;;;;;;;;;;;;;30.77;33.01;100573.38;5053677;28;19917;-61
2022/05/07 12:00:24;;;;;;;;;;;;;;;30.74;28.77;100570.94;5051654;28;19967;-61
2022/05/07 12:02:49;;;;;;;;;;;;;;;31.49;29.93;100552.66;5066673;28;19912;-61
2022/05/07 12:05:15;;;;;;;;;;;;;;;31.57;27.39;100560.91;5070887;28;19990;-61
2022/05/07 12:07:40;;;;;;;;;;;;;;;31.71;27.41;100558.31;5062391;28;19939;-62
2022/05/07 12:10:06;;;;;;;;;;;;;;;31.70;27.41;100556.63;5051344;28;19917;-61
2022/05/07 12:12:31;;;;;;;;;;;;;;;31.40;28.36;100549.03;5063005;28;20395;-63
2022/05/07 12:14:56;;;;;;;;;;;;;;;31.59;28.37;100565.22;5059981;28;19921;-63
2022/05/07 12:20:06;;;;;;;;;;;;;;;32.83;27.13;100550.91;5031150;28;19968;-63
2022/05/07 12:30:43;;;;;;;;;;;;;;;31.88;28.53;100542.69;5050712;28;19982;-64
2022/05/07 12:33:08;;;;;;;;;;;;;;;31.81;27.15;100536.16;5050640;28;20439;-64
2022/05/07 12:35:33;;;;;;;;;;;;;;;31.93;28.64;100534.78;5051519;28;19995;-64
2022/05/07 12:37:58;;;;;;;;;;;;;;;31.69;27.16;100532.03;5052100;28;19924;-64
2022/05/07 12:40:24;;;;;;;;;;;;;;;31.38;26.39;100529.09;5051808;28;20400;-64
2022/05/07 12:42:49;;;;;;;;;;;;;;;31.77;29.65;100532.03;5051031;28;19924;-64
2022/05/07 12:45:14;;;;;;;;;;;;;;;31.88;26.67;100529.81;5052088;28;20361;-65
2022/05/07 12:47:40;;;;;;;;;;;;;;;32.03;25.93;100529.97;5052252;28;19913;-65
2022/05/07 12:50:05;;;;;;;;;;;;;;;31.74;27.65;100524.13;5052606;28;20283;-65
2022/05/07 12:52:31;;;;;;;;;;;;;;;31.42;26.01;100529.59;5052260;28;19913;-65
2022/05/07 12:54:56;;;;;;;;;;;;;;;31.66;26.82;100521.38;5052182;28;19917;-65
2022/05/07 12:57:21;;;;;;;;;;;;;;;31.34;26.98;100522.22;5052219;28;19920;-65
2022/05/07 12:59:46;;;;;;;;;;;;;;;31.22;27.53;100520.78;5052217;28;20024;-65
2022/05/07 13:02:12;;;;;;;;;;;;;;;30.49;26.87;100527.06;5051365;28;19916;-65
2022/05/07 13:04:37;;;;;;;;;;;;;;;30.71;29.40;100519.06;5052101;28;19921;-65
2022/05/07 13:07:03;;;;;;;;;;;;;;;31.11;26.22;100514.75;5051923;28;19996;-65
2022/05/07 13:09:29;;;;;;;;;;;;;;;30.65;25.97;100517.00;5051831;28;19949;-65
2022/05/07 13:11:55;;;;;;;;;;;;;;;30.59;26.39;100514.06;5051808;28;19967;-66